Terminal Aerodrome Forecast
Issued by NWS

Home | Current Version | Previous Version | Text Only | Print | Product List | Glossary On
Versions: 1 2 3 4 5 6 7 8 9 10 11 12 13 14 15 16 17 18 19 20 21 22 23
000
FTUS46 KSEW 281300 AAA
TAFCLM
TAF AMD
KCLM 281322Z 2813/2912 30004KT 1/4SM FG VV001
     FM281600 00000KT 5SM BR BKN003
     FM281900 33006KT P6SM SKC
     FM291100 28002KT 2SM BR BKN003=

USA.gov is the U.S. government's official web portal to all federal, state and local government web resources and services.